Time;durP1;ratioP1;P1;durP2;ratioP2;P2;SDS_P1;SDS_P2;PMS_P1;PMS_P2;Temp;Humidity;BMP_temperature;BMP_pressure;BME280_temperature;BME280_humidity;BME280_pressure;Samples;Min_cycle;Max_cycle;Signal;HPM_P1;HPM_P2
2022/10/11 00:00:54;;;;;;;9.13;4.73;;;13.10;99.90;;;;;;5067368;23;20159;-67
2022/10/11 00:02:55;;;;;;;7.83;3.73;;;13.10;99.90;;;;;;5068794;23;20225;-68
2022/10/11 00:04:56;;;;;;;12.03;4.50;;;13.10;99.90;;;;;;5068175;23;20257;-68
2022/10/11 00:06:56;;;;;;;10.57;4.80;;;13.10;99.90;;;;;;5068007;23;20162;-68
2022/10/11 00:08:57;;;;;;;7.80;4.50;;;13.10;99.90;;;;;;5067930;23;20170;-68
2022/10/11 00:11:04;;;;;;;8.70;3.77;;;13.10;99.90;;;;;;5067217;23;20166;-68
2022/10/11 00:13:06;;;;;;;9.17;4.20;;;13.10;99.90;;;;;;5068217;23;20168;-68
2022/10/11 00:15:08;;;;;;;6.77;3.90;;;13.10;99.90;;;;;;5042383;23;20186;-68
2022/10/11 00:17:08;;;;;;;7.07;3.60;;;13.10;99.90;;;;;;5068063;23;20163;-68
2022/10/11 00:19:10;;;;;;;9.00;4.03;;;13.10;99.90;;;;;;5068205;23;20241;-68
2022/10/11 00:21:13;;;;;;;6.17;4.00;;;13.10;99.90;;;;;;5067665;23;20158;-68
2022/10/11 00:23:14;;;;;;;7.40;3.60;;;13.00;99.90;;;;;;5067877;23;20158;-67
2022/10/11 00:25:16;;;;;;;6.27;3.30;;;13.00;99.90;;;;;;5068531;23;20182;-69
2022/10/11 00:27:16;;;;;;;6.53;3.37;;;13.00;99.90;;;;;;5067847;23;20499;-68
2022/10/11 00:29:17;;;;;;;6.70;3.60;;;12.90;99.90;;;;;;5068049;23;20155;-67
2022/10/11 00:31:17;;;;;;;6.10;3.97;;;12.80;99.90;;;;;;5067278;23;20186;-67
2022/10/11 00:33:18;;;;;;;6.20;3.43;;;12.80;99.90;;;;;;5068044;23;20225;-67
2022/10/11 00:35:19;;;;;;;6.70;3.23;;;12.70;99.90;;;;;;5042021;23;20553;-68
2022/10/11 00:37:19;;;;;;;6.43;3.37;;;12.60;99.90;;;;;;5041996;23;20633;-68
2022/10/11 00:39:20;;;;;;;9.53;3.43;;;12.70;99.90;;;;;;5067840;23;20166;-67
2022/10/11 00:41:21;;;;;;;5.97;3.43;;;12.70;99.90;;;;;;5067165;23;20163;-68
2022/10/11 00:43:24;;;;;;;6.17;3.43;;;12.70;99.90;;;;;;5067571;23;20155;-68
2022/10/11 00:45:25;;;;;;;7.23;3.27;;;12.60;99.90;;;;;;5068097;23;20178;-68
2022/10/11 00:47:25;;;;;;;9.33;3.70;;;12.60;99.90;;;;;;5041629;23;20236;-67
2022/10/11 00:49:32;;;;;;;7.47;3.20;;;12.40;99.90;;;;;;5067460;23;20166;-68
2022/10/11 00:51:42;;;;;;;8.30;3.07;;;12.30;99.90;;;;;;5066608;23;20186;-68
2022/10/11 00:53:43;;;;;;;6.20;3.53;;;12.50;99.90;;;;;;5067636;23;20237;-68
2022/10/11 00:55:53;;;;;;;5.03;3.57;;;12.40;99.90;;;;;;5067260;23;20580;-68
2022/10/11 00:57:57;;;;;;;6.97;4.00;;;12.40;99.90;;;;;;5067372;23;20162;-68
2022/10/11 00:59:58;;;;;;;13.97;4.27;;;12.30;99.90;;;;;;5041712;23;20229;-68
2022/10/11 01:01:59;;;;;;;11.73;3.40;;;12.30;99.90;;;;;;5066628;23;20754;-68
2022/10/11 01:04:01;;;;;;;8.07;4.27;;;12.30;99.90;;;;;;5067729;23;20162;-68
2022/10/11 01:06:02;;;;;;;6.20;3.93;;;12.30;99.90;;;;;;5068036;23;20596;-68
2022/10/11 01:08:03;;;;;;;8.13;4.10;;;12.30;99.90;;;;;;5067754;23;20159;-68
2022/10/11 01:10:04;;;;;;;6.20;4.13;;;12.30;99.90;;;;;;5067757;23;20170;-67
2022/10/11 01:12:22;;;;;;;7.77;4.33;;;12.40;99.90;;;;;;5067167;23;20240;-68
2022/10/11 01:14:40;;;;;;;8.80;4.03;;;12.50;99.90;;;;;;5067430;23;20524;-68
2022/10/11 01:17:08;;;;;;;6.17;3.90;;;12.50;99.90;;;;;;5067523;23;20599;-67
2022/10/11 01:19:30;;;;;;;6.50;3.77;;;12.60;99.90;;;;;;5067688;23;20202;-67
2022/10/11 01:21:52;;;;;;;7.87;4.00;;;12.60;99.90;;;;;;5066566;23;20158;-67
2022/10/11 01:24:11;;;;;;;11.40;4.40;;;12.70;99.90;;;;;;5067367;23;20241;-67
2022/10/11 01:26:40;;;;;;;8.97;4.43;;;12.60;99.90;;;;;;5067178;23;21050;-67
2022/10/11 01:28:44;;;;;;;10.10;4.10;;;12.50;99.90;;;;;;5067423;23;20167;-67
2022/10/11 01:30:45;;;;;;;9.03;4.33;;;12.50;99.90;;;;;;5040797;23;20177;-67
2022/10/11 01:33:09;;;;;;;9.10;5.00;;;12.50;99.90;;;;;;5066913;23;20194;-68
2022/10/11 01:35:19;;;;;;;6.03;3.73;;;12.60;99.90;;;;;;5066961;23;20185;-67
2022/10/11 01:37:30;;;;;;;7.23;3.83;;;12.60;99.90;;;;;;5067787;23;20162;-69
2022/10/11 01:39:42;;;;;;;7.10;3.97;;;12.60;99.90;;;;;;5067260;23;20158;-67
2022/10/11 01:41:49;;;;;;;5.83;3.40;;;12.60;99.90;;;;;;5065894;23;20500;-67
2022/10/11 01:43:55;;;;;;;6.63;3.80;;;12.60;99.90;;;;;;5040805;23;20162;-68
2022/10/11 01:45:58;;;;;;;7.27;3.43;;;12.60;99.90;;;;;;5067320;23;20180;-67
2022/10/11 01:48:09;;;;;;;8.90;3.30;;;12.60;99.90;;;;;;5040716;23;20166;-67
2022/10/11 01:50:32;;;;;;;6.23;3.77;;;12.50;99.90;;;;;;5039835;23;20181;-67
2022/10/11 01:52:38;;;;;;;7.03;3.90;;;12.40;99.90;;;;;;5066452;23;20536;-67
2022/10/11 01:54:54;;;;;;;6.37;4.20;;;12.40;99.90;;;;;;5067112;23;20514;-67
2022/10/11 01:57:13;;;;;;;4.83;3.80;;;12.40;99.90;;;;;;5066432;23;20154;-67
2022/10/11 01:59:35;;;;;;;8.37;3.83;;;12.30;99.90;;;;;;5066495;23;20496;-68
2022/10/11 02:01:53;;;;;;;6.77;3.50;;;12.40;99.90;;;;;;5065905;23;20227;-67
2022/10/11 02:04:02;;;;;;;5.80;3.67;;;12.30;99.90;;;;;;5066690;23;20158;-68
2022/10/11 02:06:32;;;;;;;8.60;3.73;;;12.20;99.90;;;;;;5066430;23;20671;-68
2022/10/11 02:08:56;;;;;;;8.03;3.53;;;12.20;99.90;;;;;;5061404;23;20635;-68
2022/10/11 02:11:10;;;;;;;7.00;3.60;;;12.10;99.90;;;;;;5065815;23;20165;-68
2022/10/11 02:13:14;;;;;;;4.97;3.40;;;12.10;99.90;;;;;;5066737;23;20171;-68
2022/10/11 02:15:17;;;;;;;6.80;3.37;;;12.10;99.90;;;;;;5066300;23;20563;-68
2022/10/11 02:17:24;;;;;;;7.40;4.03;;;12.10;99.90;;;;;;5066345;23;20158;-68
2022/10/11 02:19:28;;;;;;;14.17;4.40;;;12.00;99.90;;;;;;5066753;23;20169;-68
2022/10/11 02:21:32;;;;;;;11.53;3.83;;;12.00;99.90;;;;;;5065556;23;20162;-68
2022/10/11 02:23:39;;;;;;;9.10;4.03;;;12.00;99.90;;;;;;5065647;23;20515;-70
2022/10/11 02:25:40;;;;;;;10.03;4.60;;;12.00;99.90;;;;;;5066201;23;20214;-69
2022/10/11 02:27:45;;;;;;;8.53;4.23;;;12.10;99.90;;;;;;5066561;23;20158;-69
2022/10/11 02:29:48;;;;;;;4.87;3.40;;;12.10;99.90;;;;;;5066734;23;20484;-69
2022/10/11 02:31:50;;;;;;;8.27;3.80;;;12.00;99.90;;;;;;5065811;23;20197;-69
2022/10/11 02:34:01;;;;;;;5.93;3.53;;;11.80;99.90;;;;;;5066243;23;20249;-69
2022/10/11 02:36:26;;;;;;;5.53;3.13;;;11.70;99.90;;;;;;5066452;23;20615;-69
2022/10/11 02:38:34;;;;;;;7.57;3.30;;;11.70;99.90;;;;;;5065784;23;20249;-69
2022/10/11 02:40:40;;;;;;;11.33;4.10;;;11.60;99.90;;;;;;5065828;23;20623;-69
2022/10/11 02:42:50;;;;;;;8.20;4.30;;;11.60;99.90;;;;;;5066461;23;20159;-69
2022/10/11 02:44:59;;;;;;;7.83;4.73;;;11.70;99.90;;;;;;5041327;23;20191;-69
2022/10/11 02:47:00;;;;;;;9.80;4.57;;;11.70;99.90;;;;;;5066303;23;20674;-70
2022/10/11 02:49:01;;;;;;;9.10;3.90;;;11.80;99.90;;;;;;5066827;23;20519;-69
2022/10/11 02:51:03;;;;;;;10.63;4.10;;;11.80;99.90;;;;;;5065624;23;20175;-69
2022/10/11 02:53:03;;;;;;;6.53;4.10;;;11.90;99.90;;;;;;5066282;23;20162;-69
2022/10/11 02:55:04;;;;;;;7.40;4.40;;;11.90;99.90;;;;;;5066194;23;20186;-69
2022/10/11 02:57:05;;;;;;;13.50;6.17;;;11.80;99.90;;;;;;5066459;23;20162;-69
2022/10/11 02:59:06;;;;;;;15.50;9.67;;;11.80;99.90;;;;;;5066400;23;20186;-69
2022/10/11 03:01:06;;;;;;;8.60;6.07;;;11.80;99.90;;;;;;5066093;23;20162;-69
2022/10/11 03:03:07;;;;;;;8.63;4.70;;;11.80;99.90;;;;;;5068044;23;20167;-69
2022/10/11 03:05:08;;;;;;;6.53;4.10;;;11.80;99.90;;;;;;5068032;23;20201;-69
2022/10/11 03:07:08;;;;;;;9.83;4.60;;;11.80;99.90;;;;;;5068023;23;20167;-69
2022/10/11 03:09:09;;;;;;;7.27;4.10;;;11.80;99.90;;;;;;5042096;23;20314;-69
2022/10/11 03:11:09;;;;;;;6.77;3.60;;;11.70;99.90;;;;;;5066856;23;20500;-69
2022/10/11 03:13:10;;;;;;;6.27;3.70;;;11.60;99.90;;;;;;5067850;23;20158;-69
2022/10/11 03:15:11;;;;;;;5.30;3.50;;;11.60;99.90;;;;;;5068060;23;20182;-69
2022/10/11 03:17:11;;;;;;;9.63;3.70;;;11.60;99.90;;;;;;5067800;23;20151;-69
2022/10/11 03:19:12;;;;;;;6.70;4.40;;;11.60;99.90;;;;;;5067661;23;20158;-69
2022/10/11 03:21:12;;;;;;;10.03;4.60;;;11.50;99.90;;;;;;5067366;23;20166;-68
2022/10/11 03:23:13;;;;;;;5.73;3.70;;;11.40;99.90;;;;;;5067776;23;20819;-69
2022/10/11 03:25:13;;;;;;;8.13;3.77;;;11.40;99.90;;;;;;5067636;23;20182;-68
2022/10/11 03:27:14;;;;;;;7.50;3.67;;;11.40;99.90;;;;;;5042266;23;20167;-69
2022/10/11 03:29:15;;;;;;;7.77;3.40;;;11.30;99.90;;;;;;5067487;23;20553;-69
2022/10/11 03:31:17;;;;;;;5.53;3.50;;;11.30;99.90;;;;;;5066792;23;20651;-68
2022/10/11 03:33:18;;;;;;;6.73;4.20;;;11.30;99.90;;;;;;5067676;23;20225;-69
2022/10/11 03:35:19;;;;;;;15.90;4.47;;;11.20;99.90;;;;;;5068031;23;20276;-70
2022/10/11 03:37:19;;;;;;;8.23;4.27;;;11.10;99.90;;;;;;5067626;23;20870;-69
2022/10/11 03:39:21;;;;;;;8.63;3.83;;;11.00;99.90;;;;;;5067723;23;20209;-69
2022/10/11 03:41:22;;;;;;;6.50;3.60;;;11.00;99.90;;;;;;5066891;23;20154;-69
2022/10/11 03:43:22;;;;;;;6.23;3.57;;;11.00;99.90;;;;;;5067477;23;20174;-69
2022/10/11 03:45:23;;;;;;;5.10;3.97;;;11.00;99.90;;;;;;5067312;23;20178;-69
2022/10/11 03:47:23;;;;;;;8.17;3.97;;;11.00;99.90;;;;;;5067930;23;20162;-69
2022/10/11 03:49:24;;;;;;;8.17;3.50;;;11.00;99.90;;;;;;5067590;23;20321;-69
2022/10/11 03:51:25;;;;;;;6.87;3.63;;;11.00;99.90;;;;;;5066585;23;20194;-69
2022/10/11 03:53:25;;;;;;;7.97;3.83;;;11.10;99.90;;;;;;5067085;23;20210;-69
2022/10/11 03:55:26;;;;;;;7.53;3.80;;;11.00;99.90;;;;;;5067647;23;20518;-68
2022/10/11 03:57:26;;;;;;;6.13;3.73;;;11.00;99.90;;;;;;5067855;23;20162;-68
2022/10/11 03:59:27;;;;;;;6.17;4.07;;;11.10;99.90;;;;;;5067864;23;20162;-68
2022/10/11 04:01:28;;;;;;;10.27;3.90;;;11.10;99.90;;;;;;5066550;23;20167;-68
2022/10/11 04:03:28;;;;;;;7.83;4.00;;;11.20;99.90;;;;;;5067464;23;20238;-70
2022/10/11 04:05:29;;;;;;;8.37;4.40;;;11.10;99.90;;;;;;5067739;23;20206;-70
2022/10/11 04:07:30;;;;;;;7.57;3.70;;;11.10;99.90;;;;;;5067466;23;20162;-69
2022/10/11 04:09:31;;;;;;;6.43;3.83;;;11.10;99.90;;;;;;5067582;23;20249;-69
2022/10/11 04:11:31;;;;;;;8.27;4.30;;;11.20;99.90;;;;;;5066682;23;20644;-70
2022/10/11 04:13:32;;;;;;;7.07;3.80;;;11.30;99.90;;;;;;5067133;23;20161;-70
2022/10/11 04:15:32;;;;;;;6.07;3.80;;;11.40;99.90;;;;;;5067623;23;20179;-70
2022/10/11 04:17:33;;;;;;;7.77;4.40;;;11.40;99.90;;;;;;5067429;23;20155;-70
2022/10/11 04:19:36;;;;;;;7.93;4.53;;;11.30;99.90;;;;;;5067524;23;20505;-70
2022/10/11 04:21:36;;;;;;;7.10;4.77;;;11.30;99.90;;;;;;5066911;23;20185;-69
2022/10/11 04:23:37;;;;;;;8.93;4.10;;;11.40;99.90;;;;;;5066676;23;20162;-69
2022/10/11 04:25:38;;;;;;;7.13;4.13;;;11.50;99.90;;;;;;5067322;23;20186;-69
2022/10/11 04:27:39;;;;;;;7.27;3.67;;;11.60;99.90;;;;;;5067606;23;20237;-69
2022/10/11 04:29:39;;;;;;;6.70;3.70;;;11.60;99.90;;;;;;5067189;23;20213;-70
2022/10/11 04:31:40;;;;;;;13.40;5.03;;;11.70;99.90;;;;;;5066486;23;20194;-69
2022/10/11 04:33:40;;;;;;;5.57;4.17;;;11.80;99.90;;;;;;5067251;23;20181;-69
2022/10/11 04:35:41;;;;;;;11.13;4.30;;;11.80;99.90;;;;;;5067316;23;20178;-70
2022/10/11 04:37:42;;;;;;;8.07;4.93;;;11.80;99.90;;;;;;5067441;23;20241;-71
2022/10/11 04:39:43;;;;;;;9.13;4.40;;;11.80;99.90;;;;;;5041501;23;20163;-71
2022/10/11 04:41:43;;;;;;;8.03;4.53;;;11.90;99.90;;;;;;5066698;23;20173;-69
2022/10/11 04:43:44;;;;;;;8.17;4.23;;;11.90;99.90;;;;;;5067192;23;20233;-70
2022/10/11 04:45:45;;;;;;;8.20;4.50;;;11.90;99.90;;;;;;5067442;23;20699;-69
2022/10/11 04:47:46;;;;;;;6.43;4.30;;;11.90;99.90;;;;;;5067679;23;20228;-69
2022/10/11 04:49:47;;;;;;;8.17;4.20;;;11.90;99.90;;;;;;5067665;23;20550;-69
2022/10/11 04:51:48;;;;;;;8.07;4.33;;;11.90;99.90;;;;;;5040844;23;20199;-69
2022/10/11 04:53:48;;;;;;;7.90;4.80;;;12.00;99.90;;;;;;5067448;23;21164;-70
2022/10/11 04:56:17;;;;;;;9.03;4.60;;;12.00;99.90;;;;;;5067348;23;20627;-70
2022/10/11 04:58:17;;;;;;;8.77;4.60;;;12.00;99.90;;;;;;5061891;23;20159;-70
2022/10/11 05:00:18;;;;;;;7.10;4.13;;;12.00;99.90;;;;;;5040819;23;20171;-70
2022/10/11 05:02:18;;;;;;;9.10;4.77;;;12.10;99.90;;;;;;5067035;23;20170;-70
2022/10/11 05:04:19;;;;;;;5.37;3.80;;;12.10;99.90;;;;;;5041462;23;20244;-70
2022/10/11 05:06:19;;;;;;;8.50;4.93;;;12.10;99.90;;;;;;5067064;23;20186;-70
2022/10/11 05:08:22;;;;;;;6.73;3.90;;;12.10;99.90;;;;;;5067096;23;20196;-70
2022/10/11 05:10:22;;;;;;;7.33;4.60;;;12.20;99.90;;;;;;5066686;23;20186;-70
2022/10/11 05:12:23;;;;;;;6.60;3.63;;;12.20;99.90;;;;;;5041560;23;20790;-70
2022/10/11 05:14:24;;;;;;;6.23;4.37;;;12.10;99.90;;;;;;5067215;23;20178;-70
2022/10/11 05:16:25;;;;;;;13.33;7.00;;;12.00;99.90;;;;;;5067408;23;20212;-69
2022/10/11 05:18:26;;;;;;;9.27;6.07;;;12.00;99.90;;;;;;5067058;23;20164;-69
2022/10/11 05:20:27;;;;;;;13.17;5.80;;;12.00;99.90;;;;;;5040753;23;20175;-69
2022/10/11 05:22:27;;;;;;;7.63;4.80;;;12.00;99.90;;;;;;5067182;23;20486;-69
2022/10/11 05:24:28;;;;;;;10.47;5.30;;;12.10;99.90;;;;;;5067032;23;20536;-69
2022/10/11 05:26:28;;;;;;;13.13;6.30;;;12.10;99.90;;;;;;5067096;23;20594;-70
2022/10/11 05:28:29;;;;;;;15.17;7.30;;;12.10;99.90;;;;;;5067236;23;20166;-69
2022/10/11 05:30:29;;;;;;;14.17;6.77;;;12.10;99.90;;;;;;5066590;23;20193;-69
2022/10/11 05:32:30;;;;;;;11.60;6.17;;;12.10;99.90;;;;;;5066400;23;20202;-69
2022/10/11 05:34:31;;;;;;;14.30;6.77;;;12.10;99.90;;;;;;5067189;23;20553;-70
2022/10/11 05:36:31;;;;;;;11.90;5.93;;;12.10;99.90;;;;;;5067012;23;20154;-70
2022/10/11 05:38:32;;;;;;;9.93;5.90;;;12.10;99.90;;;;;;5066929;23;20799;-70
2022/10/11 05:40:33;;;;;;;10.70;6.13;;;12.10;99.90;;;;;;5066218;23;20626;-70
2022/10/11 05:42:33;;;;;;;8.20;5.53;;;12.10;99.90;;;;;;5066929;23;20163;-70
2022/10/11 05:44:34;;;;;;;7.37;4.97;;;12.10;99.90;;;;;;5067294;23;20236;-69
2022/10/11 05:46:34;;;;;;;6.10;4.20;;;12.10;99.90;;;;;;5041300;23;20170;-70
2022/10/11 05:48:35;;;;;;;12.47;5.40;;;12.10;99.90;;;;;;5040931;23;20171;-70
2022/10/11 05:50:37;;;;;;;8.47;4.53;;;12.20;99.90;;;;;;5065915;23;20257;-70
2022/10/11 05:52:37;;;;;;;7.00;4.30;;;12.10;99.90;;;;;;5040764;23;20199;-71
2022/10/11 05:54:38;;;;;;;11.27;5.10;;;12.10;99.90;;;;;;5066530;23;20310;-71
2022/10/11 05:56:38;;;;;;;7.53;3.50;;;12.20;99.90;;;;;;5066644;23;20505;-70
2022/10/11 05:58:39;;;;;;;5.10;3.57;;;12.10;99.90;;;;;;5066485;23;20161;-70
2022/10/11 06:00:40;;;;;;;5.03;3.43;;;12.20;99.90;;;;;;5065366;23;20154;-70
2022/10/11 06:02:40;;;;;;;6.13;3.80;;;12.30;99.90;;;;;;5066253;23;20170;-70
2022/10/11 06:04:41;;;;;;;5.30;3.83;;;12.30;99.90;;;;;;5066268;23;20715;-70
2022/10/11 06:06:41;;;;;;;9.27;3.83;;;12.30;99.90;;;;;;5066360;23;20162;-70
2022/10/11 06:08:42;;;;;;;7.57;3.87;;;12.30;99.90;;;;;;5066316;23;20166;-70
2022/10/11 06:10:43;;;;;;;6.60;4.10;;;12.40;99.90;;;;;;5065602;23;20162;-70
2022/10/11 06:12:44;;;;;;;7.40;3.53;;;12.50;99.90;;;;;;5066351;23;20209;-70
2022/10/11 06:14:44;;;;;;;5.10;3.27;;;12.50;99.90;;;;;;5066291;23;20181;-70
2022/10/11 06:16:45;;;;;;;7.47;3.97;;;12.40;99.90;;;;;;5066150;23;20158;-70
2022/10/11 06:18:46;;;;;;;6.90;4.03;;;12.40;99.90;;;;;;5040541;23;20159;-70
2022/10/11 06:20:46;;;;;;;7.00;3.57;;;12.40;99.90;;;;;;5065490;23;20166;-70
2022/10/11 06:22:47;;;;;;;6.00;3.47;;;12.40;99.90;;;;;;5066352;23;20341;-70
2022/10/11 06:24:47;;;;;;;9.93;3.80;;;12.50;99.90;;;;;;5066378;23;20205;-70
2022/10/11 06:26:48;;;;;;;7.33;4.00;;;12.60;99.90;;;;;;5040421;23;20174;-70
2022/10/11 06:28:49;;;;;;;9.13;4.23;;;12.60;99.90;;;;;;5066257;23;20163;-70
2022/10/11 06:30:49;;;;;;;7.67;4.00;;;12.60;99.90;;;;;;5065370;23;20207;-70
2022/10/11 06:32:50;;;;;;;7.30;4.37;;;12.70;99.90;;;;;;5065873;23;20201;-70
2022/10/11 06:34:50;;;;;;;7.60;4.00;;;12.80;99.90;;;;;;5066345;23;20674;-71
2022/10/11 06:36:51;;;;;;;7.30;3.70;;;12.80;99.90;;;;;;5067203;23;20155;-70
2022/10/11 06:39:09;;;;;;;10.03;4.00;;;13.00;99.90;;;;;;5067387;23;20253;-70
2022/10/11 06:41:27;;;;;;;7.23;4.10;;;13.10;99.90;;;;;;5041268;23;20167;-70
2022/10/11 06:43:28;;;;;;;7.77;4.60;;;13.10;99.90;;;;;;5067760;23;20634;-70
2022/10/11 06:45:28;;;;;;;12.27;4.40;;;13.10;99.90;;;;;;5067794;23;20202;-70
2022/10/11 06:47:29;;;;;;;10.23;5.37;;;13.30;99.90;;;;;;5067951;23;20162;-70
2022/10/11 06:49:29;;;;;;;15.23;7.97;;;13.40;99.90;;;;;;5067972;23;20798;-70
2022/10/11 06:51:30;;;;;;;10.50;6.97;;;13.40;99.90;;;;;;5067034;23;20686;-71
2022/10/11 06:53:31;;;;;;;8.97;5.30;;;13.30;99.90;;;;;;5067498;23;20161;-70
2022/10/11 06:55:32;;;;;;;11.33;6.10;;;13.30;99.90;;;;;;5068021;23;20178;-70
2022/10/11 06:57:32;;;;;;;11.17;6.03;;;13.20;99.90;;;;;;5067830;23;20529;-70
2022/10/11 06:59:33;;;;;;;11.87;6.60;;;13.20;99.90;;;;;;5067678;23;20201;-70
2022/10/11 07:01:33;;;;;;;11.23;6.70;;;13.20;99.90;;;;;;5067069;23;20221;-70
2022/10/11 07:03:34;;;;;;;9.80;6.37;;;13.30;99.90;;;;;;5067841;23;20169;-70
2022/10/11 07:05:35;;;;;;;12.90;6.30;;;13.40;99.90;;;;;;5042156;23;20186;-70
2022/10/11 07:07:35;;;;;;;13.63;7.30;;;13.50;99.90;;;;;;5067779;23;20162;-70
2022/10/11 07:09:36;;;;;;;12.27;7.33;;;13.60;99.90;;;;;;5067830;23;20174;-70
2022/10/11 07:11:37;;;;;;;17.37;7.43;;;13.60;99.90;;;;;;5066882;23;20239;-70
2022/10/11 07:13:39;;;;;;;15.33;6.87;;;13.60;99.90;;;;;;5067734;23;20165;-70
2022/10/11 07:15:40;;;;;;;14.40;6.57;;;13.60;99.90;;;;;;5041882;23;20206;-71
2022/10/11 07:17:41;;;;;;;12.20;6.00;;;13.60;99.90;;;;;;5067061;23;20161;-71
2022/10/11 07:19:41;;;;;;;15.53;8.43;;;13.60;99.90;;;;;;5066032;23;20169;-71
2022/10/11 07:21:42;;;;;;;14.20;7.70;;;13.50;99.90;;;;;;5040153;23;20175;-71
2022/10/11 07:23:42;;;;;;;12.60;7.17;;;13.60;99.90;;;;;;5066605;23;20209;-71
2022/10/11 07:25:44;;;;;;;9.53;6.60;;;13.50;99.90;;;;;;5066807;23;20636;-71
2022/10/11 07:27:45;;;;;;;15.77;7.93;;;13.80;99.90;;;;;;5066952;23;20907;-71
2022/10/11 07:29:45;;;;;;;11.67;7.30;;;14.00;99.90;;;;;;5066913;23;20166;-71
2022/10/11 07:31:46;;;;;;;16.00;7.10;;;14.00;99.90;;;;;;5040367;23;20201;-71
2022/10/11 07:33:46;;;;;;;10.60;6.20;;;13.90;99.90;;;;;;5066975;23;20202;-71
2022/10/11 07:35:48;;;;;;;13.20;5.90;;;13.80;99.90;;;;;;5042126;23;20269;-71
2022/10/11 07:37:48;;;;;;;12.53;6.17;;;13.70;99.90;;;;;;5067629;23;20166;-71
2022/10/11 07:39:49;;;;;;;12.33;6.07;;;13.90;99.90;;;;;;5041812;23;20541;-71
2022/10/11 07:41:49;;;;;;;14.07;7.87;;;14.20;99.90;;;;;;5040617;23;20634;-72
2022/10/11 07:43:50;;;;;;;11.63;6.63;;;14.20;99.90;;;;;;5067287;23;20170;-71
2022/10/11 07:45:55;;;;;;;12.60;6.63;;;14.10;99.90;;;;;;5067460;23;20474;-71
2022/10/11 07:47:57;;;;;;;14.63;7.33;;;14.20;99.90;;;;;;5041069;23;20171;-72
2022/10/11 07:49:57;;;;;;;16.13;8.13;;;14.10;99.90;;;;;;5067674;23;20232;-71
2022/10/11 07:51:58;;;;;;;16.13;7.43;;;14.00;99.90;;;;;;5066339;23;20195;-71
2022/10/11 07:53:59;;;;;;;13.43;7.63;;;14.10;99.90;;;;;;5067219;23;20516;-72
2022/10/11 07:56:00;;;;;;;13.90;8.07;;;14.20;99.90;;;;;;5067318;23;20246;-71
2022/10/11 07:58:01;;;;;;;13.97;7.07;;;14.20;99.90;;;;;;5067492;23;20167;-71
2022/10/11 08:00:02;;;;;;;15.07;7.93;;;14.30;99.90;;;;;;5067351;23;20255;-72
2022/10/11 08:02:02;;;;;;;15.87;8.57;;;14.40;99.90;;;;;;5040675;23;20210;-71
2022/10/11 08:04:03;;;;;;;16.47;7.37;;;14.40;99.90;;;;;;5067024;23;20158;-72
2022/10/11 08:06:06;;;;;;;12.30;7.13;;;14.40;99.90;;;;;;5067882;23;20169;-72
2022/10/11 08:08:07;;;;;;;15.40;7.27;;;14.40;99.90;;;;;;5067117;23;20253;-71
2022/10/11 08:10:08;;;;;;;18.13;8.50;;;14.40;99.90;;;;;;5067330;23;20222;-71
2022/10/11 08:12:09;;;;;;;22.30;8.80;;;14.30;99.90;;;;;;5040929;23;20286;-71
2022/10/11 08:14:10;;;;;;;28.10;10.63;;;14.20;99.90;;;;;;5066961;23;20166;-71
2022/10/11 08:16:12;;;;;;;17.17;7.90;;;14.30;99.90;;;;;;5041506;23;20174;-71
2022/10/11 08:18:12;;;;;;;16.37;8.10;;;14.20;99.90;;;;;;5067435;23;20167;-71
2022/10/11 08:20:13;;;;;;;17.37;7.90;;;14.10;99.90;;;;;;5066272;23;20169;-71
2022/10/11 08:22:14;;;;;;;26.57;8.17;;;14.10;99.90;;;;;;5067198;23;20869;-72
2022/10/11 08:24:15;;;;;;;12.70;7.97;;;14.20;99.90;;;;;;5067102;23;20162;-72
2022/10/11 08:26:15;;;;;;;17.53;8.63;;;14.30;99.90;;;;;;5067317;23;20169;-72
2022/10/11 08:28:16;;;;;;;13.80;7.83;;;14.10;99.90;;;;;;5067155;23;20158;-71
2022/10/11 08:30:17;;;;;;;12.60;7.30;;;13.90;99.90;;;;;;5066103;23;20193;-71
2022/10/11 08:32:17;;;;;;;12.10;8.07;;;14.20;99.90;;;;;;5066854;23;20196;-71
2022/10/11 08:34:18;;;;;;;12.30;7.47;;;14.20;99.90;;;;;;5067081;23;20182;-71
2022/10/11 08:36:18;;;;;;;12.23;7.53;;;13.80;99.90;;;;;;5066994;23;20213;-71
2022/10/11 08:38:20;;;;;;;14.47;7.40;;;14.00;99.90;;;;;;5067119;23;20204;-72
2022/10/11 08:40:22;;;;;;;11.23;7.20;;;14.30;99.90;;;;;;5066191;23;20166;-71
2022/10/11 08:42:40;;;;;;;13.80;8.03;;;14.40;99.90;;;;;;5041286;23;20189;-72
2022/10/11 08:45:05;;;;;;;11.33;8.07;;;14.50;99.90;;;;;;5067132;23;20178;-71
2022/10/11 08:47:18;;;;;;;12.37;8.17;;;14.70;99.90;;;;;;5041051;23;20309;-70
2022/10/11 08:49:25;;;;;;;13.40;7.93;;;14.60;99.90;;;;;;5017443;23;20206;-70
2022/10/11 08:51:41;;;;;;;13.47;8.07;;;14.50;99.90;;;;;;5065907;23;20190;-70
2022/10/11 08:53:46;;;;;;;11.27;7.40;;;14.20;99.90;;;;;;5067044;23;20158;-70
2022/10/11 08:55:51;;;;;;;12.50;7.73;;;14.40;99.90;;;;;;5041399;23;20222;-70
2022/10/11 08:57:54;;;;;;;10.50;7.60;;;14.40;99.90;;;;;;5066970;23;20216;-70
2022/10/11 09:00:04;;;;;;;17.17;8.37;;;14.30;99.90;;;;;;5067067;23;20162;-70
2022/10/11 09:02:22;;;;;;;11.67;7.33;;;14.10;99.90;;;;;;5066332;23;20626;-71
2022/10/11 09:04:23;;;;;;;11.57;7.17;;;14.40;99.90;;;;;;5067321;23;20186;-70
2022/10/11 09:06:42;;;;;;;10.93;7.00;;;14.40;99.90;;;;;;5041604;23;20190;-71
2022/10/11 09:08:48;;;;;;;13.53;7.53;;;14.60;99.90;;;;;;5067346;23;20162;-71
2022/10/11 09:10:59;;;;;;;13.97;8.03;;;14.70;99.90;;;;;;5066518;23;20166;-70
2022/10/11 09:13:40;;;;;;;17.90;9.40;;;14.50;99.90;;;;;;5041445;23;20278;-70
2022/10/11 09:16:07;;;;;;;12.83;7.73;;;14.50;99.90;;;;;;5041512;23;20676;-70
2022/10/11 09:18:36;;;;;;;13.37;7.47;;;14.40;99.90;;;;;;4996478;23;20202;-70
2022/10/11 09:20:55;;;;;;;16.43;9.23;;;14.60;99.90;;;;;;5040714;23;20155;-70
2022/10/11 09:23:18;;;;;;;16.10;10.03;;;14.50;99.90;;;;;;5041299;23;20672;-70
2022/10/11 09:25:45;;;;;;;12.50;7.67;;;14.50;99.90;;;;;;5066724;23;20690;-70
2022/10/11 09:28:16;;;;;;;15.00;11.07;;;14.10;99.90;;;;;;5040300;23;20175;-70
2022/10/11 09:30:18;;;;;;;19.27;10.77;;;14.30;99.90;;;;;;5065782;23;20519;-70
2022/10/11 09:32:20;;;;;;;15.97;9.10;;;14.30;99.90;;;;;;5040699;23;20679;-70
2022/10/11 09:34:25;;;;;;;16.30;9.47;;;14.30;99.90;;;;;;5040958;23;20285;-70
2022/10/11 09:37:20;;;;;;;14.63;9.57;;;14.50;99.90;;;;;;5041011;23;20182;-70
2022/10/11 09:39:34;;;;;;;17.70;10.37;;;14.90;99.90;;;;;;5042171;23;20167;-70
2022/10/11 09:41:44;;;;;;;14.90;9.53;;;15.00;99.90;;;;;;5041590;23;20509;-70
2022/10/11 09:43:47;;;;;;;15.17;9.23;;;15.00;99.90;;;;;;5040898;23;20250;-70
2022/10/11 09:45:48;;;;;;;14.77;10.20;;;15.00;99.90;;;;;;5041998;23;20274;-69
2022/10/11 09:47:52;;;;;;;21.93;10.17;;;15.00;99.90;;;;;;5065031;23;20173;-70
2022/10/11 09:50:14;;;;;;;18.50;11.03;;;14.90;99.90;;;;;;5042570;23;20183;-70
2022/10/11 09:52:21;;;;;;;22.33;12.03;;;14.70;99.90;;;;;;5042115;23;20688;-70
2022/10/11 09:54:44;;;;;;;16.77;10.30;;;14.80;99.90;;;;;;5040519;23;20190;-71
2022/10/11 09:56:45;;;;;;;17.00;10.40;;;14.70;99.90;;;;;;5040546;23;20155;-70
2022/10/11 09:58:46;;;;;;;20.03;10.67;;;14.90;99.90;;;;;;5042239;23;20246;-70
2022/10/11 10:01:07;;;;;;;17.43;10.50;;;14.90;99.90;;;;;;5041321;23;20230;-70
2022/10/11 10:03:30;;;;;;;18.20;11.33;;;14.70;99.90;;;;;;5040646;23;20628;-70
2022/10/11 10:05:37;;;;;;;24.13;12.63;;;14.80;99.90;;;;;;5040686;23;20266;-70
2022/10/11 10:07:56;;;;;;;17.63;9.83;;;15.00;99.90;;;;;;5040952;23;20163;-70
2022/10/11 10:09:58;;;;;;;15.87;9.47;;;15.00;99.90;;;;;;5040163;23;20166;-70
2022/10/11 10:12:10;;;;;;;18.50;10.40;;;15.10;99.70;;;;;;5015562;23;20195;-70
2022/10/11 10:14:28;;;;;;;19.30;10.93;;;14.90;99.90;;;;;;5040499;23;20173;-70
2022/10/11 10:16:31;;;;;;;21.33;11.00;;;14.60;99.90;;;;;;5040740;23;20234;-70
2022/10/11 10:18:36;;;;;;;27.77;12.67;;;14.50;99.90;;;;;;5040718;23;20163;-69
2022/10/11 10:20:37;;;;;;;19.83;11.80;;;14.10;99.90;;;;;;5041281;23;20560;-70
2022/10/11 10:22:37;;;;;;;18.30;10.37;;;14.10;99.90;;;;;;5041903;23;20217;-72
2022/10/11 10:24:40;;;;;;;14.63;9.10;;;14.10;99.90;;;;;;5041831;23;20527;-70
2022/10/11 10:26:40;;;;;;;18.33;10.13;;;14.30;99.90;;;;;;5040635;23;20159;-70
2022/10/11 10:29:01;;;;;;;16.30;9.37;;;14.50;99.90;;;;;;5040512;23;20178;-71
2022/10/11 10:31:02;;;;;;;15.07;8.77;;;14.60;99.90;;;;;;5041491;23;20926;-71
2022/10/11 10:33:07;;;;;;;16.70;8.60;;;14.50;99.90;;;;;;5052379;23;20198;-71
2022/10/11 10:35:13;;;;;;;18.17;9.90;;;14.60;99.90;;;;;;5066626;23;20620;-70
2022/10/11 10:37:32;;;;;;;14.50;8.87;;;14.60;99.90;;;;;;5066293;23;20161;-70
2022/10/11 10:39:47;;;;;;;13.63;8.47;;;14.70;99.90;;;;;;5040308;23;20166;-70
2022/10/11 10:41:47;;;;;;;19.00;8.90;;;14.50;99.90;;;;;;5063816;23;20252;-70
2022/10/11 10:43:54;;;;;;;13.50;8.17;;;14.70;99.90;;;;;;5064408;23;20175;-71